Time;durP1;ratioP1;P1;durP2;ratioP2;P2;SDS_P1;SDS_P2;PMS_P1;PMS_P2;Temp;Humidity;BMP_temperature;BMP_pressure;BME280_temperature;BME280_humidity;BME280_pressure;Samples;Min_cycle;Max_cycle;Signal;HPM_P1;HPM_P2
2021/10/11 00:02:21;;;;;;;33.85;18.87;;;;;;;5.58;100.00;100077.75;1601331;89;21008;-67
2021/10/11 00:04:48;;;;;;;31.12;19.20;;;;;;;5.57;100.00;100075.55;1601739;88;21028;-69
2021/10/11 00:07:17;;;;;;;38.08;18.65;;;;;;;5.57;100.00;100066.39;1601832;88;21108;-67
2021/10/11 00:09:45;;;;;;;27.30;18.70;;;;;;;5.56;100.00;100068.55;1601819;88;21550;-67
2021/10/11 00:12:13;;;;;;;30.50;18.92;;;;;;;5.55;100.00;100073.73;1601973;88;20952;-67
2021/10/11 00:14:42;;;;;;;33.33;20.50;;;;;;;5.54;100.00;100074.58;1601422;88;21458;-67
2021/10/11 00:17:09;;;;;;;32.55;18.87;;;;;;;5.51;100.00;100075.38;1601931;88;20919;-67
2021/10/11 00:19:39;;;;;;;31.42;18.37;;;;;;;5.48;100.00;100075.30;1599918;88;21439;-67
2021/10/11 00:22:08;;;;;;;35.00;19.62;;;;;;;5.45;100.00;100076.52;1592653;88;21451;-68
2021/10/11 00:24:35;;;;;;;30.90;18.92;;;;;;;5.43;100.00;100077.31;1590523;88;20968;-67
2021/10/11 00:27:03;;;;;;;33.02;19.07;;;;;;;5.37;100.00;100073.67;1593062;88;21008;-67
2021/10/11 00:29:31;;;;;;;30.10;18.65;;;;;;;5.35;100.00;100065.31;1592130;88;21490;-67
2021/10/11 00:32:03;;;;;;;33.08;19.80;;;;;;;5.31;100.00;100066.06;1592739;88;20975;-68
2021/10/11 00:34:30;;;;;;;31.90;19.50;;;;;;;5.25;100.00;100058.93;1592716;88;21458;-67
2021/10/11 00:36:59;;;;;;;32.08;19.17;;;;;;;5.22;100.00;100058.84;1592735;88;20903;-67
2021/10/11 00:39:27;;;;;;;32.03;18.82;;;;;;;5.23;100.00;100055.80;1592835;88;20956;-68
2021/10/11 00:41:55;;;;;;;29.80;19.52;;;;;;;5.20;100.00;100052.67;1589934;88;21041;-67
2021/10/11 00:44:22;;;;;;;33.50;19.80;;;;;;;5.20;100.00;100053.06;1565329;90;21037;-67
2021/10/11 00:46:51;;;;;;;32.70;19.00;;;;;;;5.21;100.00;100053.56;1565132;89;21133;-67
2021/10/11 00:49:18;;;;;;;29.02;19.12;;;;;;;5.21;100.00;100049.64;1564843;90;21015;-67
2021/10/11 00:51:47;;;;;;;34.70;20.72;;;;;;;5.21;100.00;100053.56;1565364;90;21077;-67
2021/10/11 00:54:14;;;;;;;30.52;19.37;;;;;;;5.19;100.00;100051.29;1564912;89;21490;-67
2021/10/11 00:56:42;;;;;;;27.50;17.92;;;;;;;5.18;100.00;100041.67;1590549;88;21040;-67
2021/10/11 00:59:10;;;;;;;30.12;18.27;;;;;;;5.15;100.00;100050.31;1595464;88;21113;-66
2021/10/11 01:01:38;;;;;;;30.32;19.27;;;;;;;5.11;100.00;100048.45;1592422;88;21459;-68
2021/10/11 01:04:06;;;;;;;28.80;18.40;;;;;;;5.06;100.00;100040.47;1592606;88;21482;-68
2021/10/11 01:06:39;;;;;;;31.30;18.80;;;;;;;5.02;100.00;100034.68;1592616;88;20987;-67
2021/10/11 01:09:08;;;;;;;29.48;18.00;;;;;;;4.97;100.00;100036.27;1592302;88;21033;-67
2021/10/11 01:11:36;;;;;;;36.20;18.70;;;;;;;4.92;100.00;100023.90;1592229;88;21507;-68
2021/10/11 01:14:05;;;;;;;27.45;18.60;;;;;;;4.86;100.00;100026.33;1592131;88;21454;-67
2021/10/11 01:16:33;;;;;;;36.60;18.57;;;;;;;4.76;100.00;100023.86;1592256;88;21525;-66
2021/10/11 01:19:01;;;;;;;29.15;18.98;;;;;;;4.69;100.00;100020.13;1592643;88;20952;-66
2021/10/11 01:21:29;;;;;;;33.38;19.67;;;;;;;4.65;100.00;100020.88;1598974;89;20940;-66
2021/10/11 01:23:58;;;;;;;27.60;16.52;;;;;;;4.65;100.00;100018.68;1594885;88;21020;-68
2021/10/11 01:26:39;;;;;;;29.80;17.85;;;;;;;4.66;100.00;100027.88;1592337;88;20980;-68
2021/10/11 01:29:07;;;;;;;32.65;19.27;;;;;;;4.71;100.00;100023.67;1592274;88;20967;-68
2021/10/11 01:31:35;;;;;;;29.35;18.48;;;;;;;4.74;100.00;100024.23;1594087;88;21459;-68
2021/10/11 01:34:03;;;;;;;36.73;19.50;;;;;;;4.74;100.00;100017.69;1594197;89;20984;-68
2021/10/11 01:36:31;;;;;;;32.50;20.97;;;;;;;4.72;100.00;100019.34;1595215;88;21483;-68
2021/10/11 01:39:00;;;;;;;30.10;20.08;;;;;;;4.69;100.00;100015.33;1594172;88;20961;-68
2021/10/11 01:41:28;;;;;;;31.42;20.50;;;;;;;4.66;100.00;100013.50;1593201;88;20988;-68
2021/10/11 01:43:57;;;;;;;38.20;21.00;;;;;;;4.64;100.00;100013.87;1593081;89;21463;-68
2021/10/11 01:46:25;;;;;;;35.20;22.82;;;;;;;4.58;100.00;100008.45;1592352;88;21035;-68
2021/10/11 01:48:53;;;;;;;37.42;23.75;;;;;;;4.52;100.00;100003.45;1592634;88;21150;-68
2021/10/11 01:51:22;;;;;;;38.08;22.50;;;;;;;4.47;100.00;99999.39;1592526;88;20885;-68
2021/10/11 01:53:50;;;;;;;38.95;21.20;;;;;;;4.44;100.00;99988.85;1592371;88;21012;-68
2021/10/11 01:56:20;;;;;;;32.25;19.62;;;;;;;4.43;100.00;99995.80;1592312;88;21455;-68
2021/10/11 01:58:48;;;;;;;31.93;19.42;;;;;;;4.45;100.00;99998.88;1592774;88;21486;-68
2021/10/11 02:01:16;;;;;;;27.87;18.40;;;;;;;4.44;100.00;99996.69;1596948;88;21113;-68
2021/10/11 02:03:44;;;;;;;27.48;18.30;;;;;;;4.45;100.00;99987.13;1593035;88;21019;-68
2021/10/11 02:06:13;;;;;;;27.15;18.73;;;;;;;4.46;100.00;99988.90;1575046;90;21479;-68
2021/10/11 02:08:40;;;;;;;28.87;18.75;;;;;;;4.45;100.00;99981.91;1573772;90;21028;-68
2021/10/11 02:11:08;;;;;;;30.00;18.77;;;;;;;4.45;100.00;99980.59;1598227;88;20979;-69
2021/10/11 02:13:37;;;;;;;30.23;18.52;;;;;;;4.46;100.00;99978.03;1601761;88;21487;-68
2021/10/11 02:16:05;;;;;;;32.88;19.10;;;;;;;4.51;100.00;99972.53;1600324;89;20956;-60
2021/10/11 02:18:35;;;;;;;31.10;18.73;;;;;;;4.54;100.00;99971.73;1595585;88;21452;-67
2021/10/11 02:21:03;;;;;;;32.80;20.10;;;;;;;4.56;100.00;99980.51;1594527;88;20999;-67
2021/10/11 02:23:31;;;;;;;30.12;17.92;;;;;;;4.58;100.00;99984.05;1583156;89;20953;-61
2021/10/11 02:25:58;;;;;;;28.55;17.48;;;;;;;4.57;100.00;99982.28;1548191;91;21122;-66
2021/10/11 02:28:27;;;;;;;28.12;17.45;;;;;;;4.54;100.00;99983.49;1600703;89;20913;-61
2021/10/11 02:30:56;;;;;;;31.35;17.62;;;;;;;4.52;100.00;99982.14;1600715;89;20893;-66
2021/10/11 02:33:24;;;;;;;29.60;17.67;;;;;;;4.50;100.00;99975.98;1600127;88;21018;-66
2021/10/11 02:35:52;;;;;;;27.90;17.30;;;;;;;4.47;100.00;99977.61;1600217;88;21554;-66
2021/10/11 02:38:20;;;;;;;29.02;17.60;;;;;;;4.44;100.00;99982.32;1600287;88;21462;-67
2021/10/11 02:40:48;;;;;;;30.65;18.57;;;;;;;4.38;100.00;99976.48;1600185;88;20951;-66
2021/10/11 02:43:16;;;;;;;30.68;19.23;;;;;;;4.35;100.00;99979.00;1600491;88;20923;-64
2021/10/11 02:45:44;;;;;;;33.28;20.77;;;;;;;4.28;100.00;99973.11;1600895;88;21031;-65
2021/10/11 02:48:11;;;;;;;34.45;20.43;;;;;;;4.24;100.00;99977.73;1601875;88;20978;-64
2021/10/11 02:50:39;;;;;;;35.23;21.65;;;;;;;4.20;100.00;99969.75;1601351;88;21375;-65
2021/10/11 02:53:07;;;;;;;37.08;21.45;;;;;;;4.14;100.00;99965.64;1602178;88;21044;-64
2021/10/11 02:55:36;;;;;;;34.15;20.90;;;;;;;4.06;100.00;99964.98;1601673;88;20979;-66
2021/10/11 02:58:04;;;;;;;34.30;20.05;;;;;;;4.00;100.00;99964.78;1601403;88;21026;-66
2021/10/11 03:00:32;;;;;;;35.40;19.82;;;;;;;3.92;100.00;99964.05;1601941;88;21006;-66
2021/10/11 03:02:59;;;;;;;33.50;19.82;;;;;;;3.85;100.00;99960.77;1602054;88;21102;-66
2021/10/11 03:05:27;;;;;;;29.75;18.40;;;;;;;3.75;100.00;99952.61;1601755;88;20875;-67
2021/10/11 03:07:55;;;;;;;27.17;18.12;;;;;;;3.68;100.00;99951.92;1602075;88;20997;-68
2021/10/11 03:10:23;;;;;;;29.82;18.05;;;;;;;3.62;100.00;99949.53;1601566;88;20994;-68
2021/10/11 03:12:50;;;;;;;26.68;17.07;;;;;;;3.55;100.00;99943.63;1601805;88;20915;-69
2021/10/11 03:15:18;;;;;;;35.73;18.35;;;;;;;3.51;100.00;99941.75;1601979;88;21442;-69
2021/10/11 03:17:46;;;;;;;25.95;16.57;;;;;;;3.50;100.00;99945.20;1601773;88;20911;-69
2021/10/11 03:20:14;;;;;;;33.78;17.80;;;;;;;3.48;100.00;99940.81;1602252;88;21027;-69
2021/10/11 03:22:41;;;;;;;26.85;16.77;;;;;;;3.48;100.00;99936.91;1594937;88;20995;-70
2021/10/11 03:25:09;;;;;;;26.25;15.35;;;;;;;3.52;100.00;99929.18;1592607;88;21489;-66
2021/10/11 03:27:37;;;;;;;24.70;16.12;;;;;;;3.59;100.00;99933.77;1593003;88;21083;-66
2021/10/11 03:30:06;;;;;;;26.73;16.52;;;;;;;3.65;100.00;99933.56;1592573;88;20995;-65
2021/10/11 03:32:34;;;;;;;25.08;16.70;;;;;;;3.71;100.00;99931.16;1592505;88;21027;-63
2021/10/11 03:35:03;;;;;;;30.20;17.50;;;;;;;3.76;100.00;99923.48;1593908;87;20956;-67
2021/10/11 03:37:30;;;;;;;29.63;16.55;;;;;;;3.77;100.00;99915.70;1598985;87;20970;-63
2021/10/11 03:39:58;;;;;;;28.77;17.37;;;;;;;3.80;100.00;99914.95;1599865;87;21893;-67
2021/10/11 03:42:26;;;;;;;25.27;16.35;;;;;;;3.82;100.00;99912.39;1597710;89;21007;-65
2021/10/11 03:44:57;;;;;;;26.10;15.88;;;;;;;3.83;100.00;99903.73;1592400;88;20952;-67
2021/10/11 03:47:26;;;;;;;28.80;17.50;;;;;;;3.85;100.00;99904.24;1592665;88;20924;-63
2021/10/11 03:49:54;;;;;;;28.47;15.78;;;;;;;3.85;100.00;99905.55;1592422;89;21478;-66
2021/10/11 03:52:22;;;;;;;24.40;15.85;;;;;;;3.85;100.00;99899.02;1591959;88;21781;-68
2021/10/11 03:54:50;;;;;;;25.95;15.93;;;;;;;3.91;100.00;99901.83;1591110;88;20903;-68
2021/10/11 03:57:18;;;;;;;28.20;17.05;;;;;;;3.94;100.00;99902.34;1591022;88;21045;-68
2021/10/11 03:59:47;;;;;;;28.45;17.55;;;;;;;3.95;100.00;99894.98;1591824;88;21446;-68
2021/10/11 04:02:15;;;;;;;28.80;16.35;;;;;;;3.97;100.00;99894.20;1592704;88;20988;-68
2021/10/11 04:04:43;;;;;;;25.25;17.57;;;;;;;3.96;100.00;99886.31;1592321;88;21115;-68
2021/10/11 04:07:13;;;;;;;29.70;16.60;;;;;;;3.96;100.00;99884.59;1594502;88;21003;-68
2021/10/11 04:09:43;;;;;;;25.35;15.95;;;;;;;3.96;100.00;99879.79;1600926;88;20978;-67
2021/10/11 04:12:28;;;;;;;26.45;16.60;;;;;;;3.93;100.00;99877.09;1599666;87;21419;-67
2021/10/11 04:14:48;;;;;;;27.07;17.20;;;;;;;3.90;100.00;99880.91;1591490;88;21467;-67
2021/10/11 04:17:16;;;;;;;26.60;16.00;;;;;;;3.88;100.00;99877.36;1592263;88;21072;-67
2021/10/11 04:19:44;;;;;;;25.55;16.35;;;;;;;3.85;100.00;99879.45;1592310;88;20923;-67
2021/10/11 04:22:12;;;;;;;26.80;16.45;;;;;;;3.82;100.00;99878.47;1592074;88;21022;-67
2021/10/11 04:24:40;;;;;;;26.87;17.37;;;;;;;3.78;100.00;99873.15;1592286;88;21555;-67
2021/10/11 04:27:08;;;;;;;28.30;17.32;;;;;;;3.75;100.00;99875.62;1592440;88;21874;-67
2021/10/11 04:29:38;;;;;;;27.05;16.20;;;;;;;3.70;100.00;99869.38;1592354;88;21792;-67
2021/10/11 04:32:07;;;;;;;25.27;15.90;;;;;;;3.67;100.00;99875.80;1596116;88;20972;-67
2021/10/11 04:34:37;;;;;;;27.40;17.02;;;;;;;3.68;100.00;99874.96;1592291;88;20971;-67
2021/10/11 04:37:06;;;;;;;26.65;17.02;;;;;;;3.67;100.00;99872.30;1591986;88;20931;-67
2021/10/11 04:39:34;;;;;;;29.55;16.97;;;;;;;3.63;100.00;99870.01;1592589;88;20920;-67
2021/10/11 04:42:01;;;;;;;29.65;17.20;;;;;;;3.61;100.00;99868.19;1592612;88;21939;-67
2021/10/11 04:44:30;;;;;;;36.73;17.80;;;;;;;3.58;100.00;99866.78;1592338;88;21542;-67
2021/10/11 04:46:58;;;;;;;27.02;17.45;;;;;;;3.57;100.00;99861.98;1592292;88;20931;-67
2021/10/11 04:49:27;;;;;;;37.20;19.07;;;;;;;3.57;100.00;99871.11;1592815;88;20960;-67
2021/10/11 04:51:55;;;;;;;38.02;18.05;;;;;;;3.53;100.00;99867.94;1592791;88;21562;-67
2021/10/11 04:54:23;;;;;;;33.13;16.90;;;;;;;3.53;100.00;99875.76;1592517;88;21091;-67
2021/10/11 04:56:51;;;;;;;31.73;18.52;;;;;;;3.47;100.00;99875.56;1592325;88;21529;-67
2021/10/11 04:59:20;;;;;;;31.23;18.57;;;;;;;3.42;100.00;99879.31;1592718;88;20971;-68
2021/10/11 05:01:47;;;;;;;37.93;21.00;;;;;;;3.41;100.00;99884.48;1592400;88;21067;-67
2021/10/11 05:04:17;;;;;;;39.63;22.52;;;;;;;3.39;100.00;99882.23;1596294;88;20955;-67
2021/10/11 05:06:46;;;;;;;84.83;26.87;;;;;;;3.36;100.00;99888.23;1592658;88;21785;-66
2021/10/11 05:09:14;;;;;;;62.00;25.52;;;;;;;3.33;100.00;99888.13;1592910;88;21550;-66
2021/10/11 05:11:42;;;;;;;50.88;27.02;;;;;;;3.32;100.00;99894.59;1592273;88;21608;-67
2021/10/11 05:14:10;;;;;;;47.50;27.32;;;;;;;3.30;100.00;99897.53;1592623;88;21028;-67
2021/10/11 05:16:39;;;;;;;46.20;26.77;;;;;;;3.27;100.00;99894.41;1592330;88;20904;-67
2021/10/11 05:19:06;;;;;;;52.40;27.77;;;;;;;3.27;100.00;99889.61;1592548;88;21136;-66
2021/10/11 05:21:35;;;;;;;45.40;26.57;;;;;;;3.30;100.00;99889.30;1591884;88;20991;-67
2021/10/11 05:24:03;;;;;;;49.38;26.70;;;;;;;3.32;100.00;99888.97;1592666;88;20880;-67
2021/10/11 05:26:31;;;;;;;56.85;27.62;;;;;;;3.37;100.00;99893.92;1592480;88;20963;-67
2021/10/11 05:28:59;;;;;;;51.02;27.52;;;;;;;3.40;100.00;99884.89;1593288;89;20979;-67
2021/10/11 05:31:26;;;;;;;46.80;26.33;;;;;;;3.45;100.00;99883.75;1592805;88;21817;-67
2021/10/11 05:33:54;;;;;;;39.30;23.10;;;;;;;3.53;100.00;99880.98;1592603;88;20924;-66
2021/10/11 05:36:21;;;;;;;41.00;22.27;;;;;;;3.60;100.00;99879.45;1592318;88;20987;-67
2021/10/11 05:38:48;;;;;;;39.03;22.40;;;;;;;3.67;100.00;99878.83;1592654;88;21564;-67
2021/10/11 05:41:16;;;;;;;36.73;21.70;;;;;;;3.81;100.00;99879.30;1592632;88;20997;-67
2021/10/11 05:43:43;;;;;;;27.77;17.57;;;;;;;3.91;100.00;99878.34;1592681;88;21102;-68
2021/10/11 05:46:11;;;;;;;26.93;17.73;;;;;;;4.03;100.00;99876.11;1592350;88;20884;-67
2021/10/11 05:48:38;;;;;;;25.35;16.27;;;;;;;4.13;100.00;99881.20;1592657;88;20967;-67
2021/10/11 05:51:06;;;;;;;26.55;16.05;;;;;;;4.24;100.00;99875.89;1592454;88;20935;-66
2021/10/11 05:53:34;;;;;;;25.37;16.62;;;;;;;4.37;100.00;99875.88;1590415;88;20943;-67
2021/10/11 05:56:02;;;;;;;27.20;17.37;;;;;;;4.48;100.00;99873.58;1590703;88;21109;-68
2021/10/11 05:58:30;;;;;;;26.87;15.65;;;;;;;4.60;100.00;99870.02;1591923;88;20892;-68
2021/10/11 06:00:58;;;;;;;30.23;17.92;;;;;;;4.72;100.00;99871.25;1573597;88;21478;-68
2021/10/11 06:03:26;;;;;;;27.40;17.85;;;;;;;4.90;100.00;99872.22;1593348;88;20992;-67
2021/10/11 06:05:53;;;;;;;28.73;17.40;;;;;;;5.03;100.00;99867.80;1593415;88;20940;-67
2021/10/11 06:08:22;;;;;;;28.15;17.30;;;;;;;5.17;100.00;99874.70;1592645;88;21510;-66
2021/10/11 06:10:49;;;;;;;26.68;17.67;;;;;;;5.29;100.00;99881.60;1592387;88;21078;-67
2021/10/11 06:13:17;;;;;;;29.12;17.32;;;;;;;5.39;100.00;99876.19;1592899;88;21452;-68
2021/10/11 06:15:45;;;;;;;31.25;17.30;;;;;;;5.51;100.00;99873.88;1592783;88;21574;-67
2021/10/11 06:18:12;;;;;;;24.35;16.35;;;;;;;5.61;100.00;99869.77;1592843;88;20947;-68
2021/10/11 06:20:40;;;;;;;23.67;16.73;;;;;;;5.72;100.00;99876.19;1592776;88;21096;-68
2021/10/11 06:23:08;;;;;;;27.27;16.73;;;;;;;5.83;100.00;99868.16;1592794;88;21447;-68
2021/10/11 06:25:36;;;;;;;34.13;17.95;;;;;;;5.93;100.00;99864.06;1592947;89;20957;-68
2021/10/11 06:28:04;;;;;;;29.27;17.37;;;;;;;6.04;100.00;99868.24;1592485;89;20931;-68
2021/10/11 06:30:31;;;;;;;27.27;17.00;;;;;;;6.14;100.00;99865.88;1592751;89;21484;-68
2021/10/11 06:32:58;;;;;;;27.20;16.85;;;;;;;6.25;100.00;99869.66;1592750;89;21097;-68
2021/10/11 06:35:26;;;;;;;27.17;17.05;;;;;;;6.36;100.00;99855.90;1592050;89;20959;-68
2021/10/11 06:37:55;;;;;;;28.57;17.10;;;;;;;6.49;100.00;99857.93;1592829;89;21059;-67
2021/10/11 06:40:22;;;;;;;30.65;17.00;;;;;;;6.59;100.00;99852.03;1592549;89;21590;-68
2021/10/11 06:42:49;;;;;;;24.87;16.67;;;;;;;6.72;100.00;99858.44;1588160;90;20972;-68
2021/10/11 06:45:17;;;;;;;25.48;17.02;;;;;;;6.83;100.00;99852.56;1592639;89;21169;-68
2021/10/11 06:47:45;;;;;;;25.72;16.48;;;;;;;6.94;100.00;99852.34;1592655;89;20981;-66
2021/10/11 06:50:12;;;;;;;42.13;17.52;;;;;;;7.06;100.00;99841.20;1592504;89;20924;-68
2021/10/11 06:52:39;;;;;;;26.05;16.42;;;;;;;7.18;100.00;99842.77;1592532;89;20963;-68
2021/10/11 06:55:07;;;;;;;28.65;18.12;;;;;;;7.31;100.00;99833.80;1592258;89;20927;-68
2021/10/11 06:57:35;;;;;;;28.23;17.73;;;;;;;7.43;100.00;99830.97;1592487;89;21941;-68
2021/10/11 07:00:04;;;;;;;27.90;17.77;;;;;;;7.55;100.00;99833.80;1592730;89;20964;-68
2021/10/11 07:02:33;;;;;;;30.55;17.57;;;;;;;7.68;100.00;99834.03;1592436;89;21473;-68
2021/10/11 07:05:08;;;;;;;26.05;17.62;;;;;;;7.80;100.00;99832.48;1592580;89;20887;-67
2021/10/11 07:07:33;;;;;;;29.37;18.17;;;;;;;7.93;100.00;99840.55;1591953;89;20967;-67
2021/10/11 07:10:02;;;;;;;27.98;18.07;;;;;;;8.06;100.00;99833.34;1575631;89;21115;-68
2021/10/11 07:12:29;;;;;;;30.57;19.25;;;;;;;8.17;100.00;99825.18;1591952;89;20979;-67
2021/10/11 07:14:56;;;;;;;33.05;19.10;;;;;;;8.32;100.00;99821.88;1592570;89;21038;-67
2021/10/11 07:17:24;;;;;;;34.63;18.90;;;;;;;8.45;100.00;99813.32;1592412;89;21055;-67
2021/10/11 07:19:52;;;;;;;31.37;20.05;;;;;;;8.58;100.00;99804.75;1592492;89;21003;-67
2021/10/11 07:22:20;;;;;;;32.58;19.45;;;;;;;8.73;100.00;99800.11;1592525;89;21122;-67
2021/10/11 07:24:47;;;;;;;30.52;21.42;;;;;;;8.86;100.00;99795.87;1597041;88;21439;-66
2021/10/11 07:27:15;;;;;;;32.38;19.75;;;;;;;8.98;100.00;99796.00;1601513;88;20919;-68
2021/10/11 07:29:42;;;;;;;31.77;18.75;;;;;;;9.10;100.00;99794.84;1601765;88;20919;-68
2021/10/11 07:32:10;;;;;;;32.33;18.98;;;;;;;9.22;100.00;99790.13;1601504;88;21522;-68
2021/10/11 07:34:38;;;;;;;28.05;17.20;;;;;;;9.35;100.00;99788.93;1602142;88;21735;-68
2021/10/11 07:37:05;;;;;;;28.17;18.05;;;;;;;9.49;100.00;99786.88;1601732;88;20923;-68
2021/10/11 07:39:34;;;;;;;32.63;18.15;;;;;;;9.62;100.00;99784.80;1602166;88;21438;-68
2021/10/11 07:42:02;;;;;;;28.07;17.12;;;;;;;9.77;100.00;99775.69;1601901;88;21053;-67
2021/10/11 07:44:30;;;;;;;23.80;16.40;;;;;;;9.92;100.00;99776.22;1602112;88;21525;-68
2021/10/11 07:46:58;;;;;;;34.55;17.98;;;;;;;10.07;100.00;99770.64;1601846;88;21150;-67
2021/10/11 07:49:26;;;;;;;44.73;18.37;;;;;;;10.23;100.00;99766.80;1602003;88;20899;-68
2021/10/11 07:51:54;;;;;;;30.45;16.65;;;;;;;10.39;100.00;99763.36;1601869;88;20979;-68
2021/10/11 07:54:23;;;;;;;27.90;16.12;;;;;;;10.53;100.00;99759.05;1601915;88;21458;-68
2021/10/11 07:56:51;;;;;;;22.48;15.93;;;;;;;10.68;100.00;99760.41;1601539;88;21470;-68
2021/10/11 07:59:20;;;;;;;25.27;15.93;;;;;;;10.85;100.00;99754.30;1600158;87;21202;-68
2021/10/11 08:01:48;;;;;;;27.27;16.25;;;;;;;10.99;100.00;99756.13;1602167;88;20919;-69
2021/10/11 08:04:16;;;;;;;22.02;15.23;;;;;;;11.14;100.00;99744.70;1601659;88;20904;-68
2021/10/11 08:06:43;;;;;;;24.10;16.02;;;;;;;11.31;100.00;99749.55;1601844;88;20979;-69
2021/10/11 08:09:11;;;;;;;25.90;16.10;;;;;;;11.50;100.00;99742.53;1601888;88;20971;-69
2021/10/11 08:11:42;;;;;;;21.97;15.05;;;;;;;11.67;100.00;99742.08;1600880;88;21470;-68
2021/10/11 08:14:08;;;;;;;28.47;16.07;;;;;;;11.86;100.00;99739.03;1601245;88;20923;-68
2021/10/11 08:16:38;;;;;;;22.82;16.35;;;;;;;12.03;100.00;99733.70;1602205;88;21503;-68
2021/10/11 08:19:09;;;;;;;26.90;16.05;;;;;;;12.20;100.00;99738.49;1601902;88;20962;-69
2021/10/11 08:21:37;;;;;;;24.95;15.80;;;;;;;12.37;100.00;99734.49;1602354;88;21466;-69
2021/10/11 08:24:06;;;;;;;31.90;15.28;;;;;;;12.54;100.00;99737.06;1601448;88;21557;-69
2021/10/11 08:26:35;;;;;;;27.80;16.55;;;;;;;12.72;99.93;99736.09;1592139;88;20963;-68
2021/10/11 08:29:03;;;;;;;30.17;16.02;;;;;;;12.89;97.83;99734.25;1592093;88;20891;-69
2021/10/11 08:31:32;;;;;;;27.05;15.08;;;;;;;13.02;94.40;99727.98;1593005;88;21482;-69
2021/10/11 08:34:00;;;;;;;26.70;16.37;;;;;;;13.16;91.26;99712.88;1592399;88;21047;-68
2021/10/11 08:36:27;;;;;;;22.90;15.48;;;;;;;13.29;88.22;99711.52;1592452;88;21030;-69
2021/10/11 08:38:55;;;;;;;43.02;15.58;;;;;;;13.41;86.02;99706.11;1592217;88;21415;-69
2021/10/11 08:41:23;;;;;;;23.73;15.40;;;;;;;13.55;84.02;99702.44;1592245;88;20931;-69
2021/10/11 08:43:50;;;;;;;21.87;15.38;;;;;;;13.73;81.90;99704.06;1592824;88;20964;-70
2021/10/11 08:46:18;;;;;;;21.33;12.25;;;;;;;13.90;80.29;99713.16;1573771;88;20975;-69
2021/10/11 08:48:46;;;;;;;15.23;10.93;;;;;;;14.05;77.63;99710.80;1592395;88;21103;-71
2021/10/11 08:51:14;;;;;;;19.00;11.30;;;;;;;14.18;74.75;99705.77;1592545;88;20975;-69
2021/10/11 08:53:44;;;;;;;20.25;11.40;;;;;;;14.30;73.16;99704.33;1592926;88;21452;-69
2021/10/11 08:56:11;;;;;;;16.75;11.40;;;;;;;14.45;71.42;99701.96;1592413;88;20947;-69
2021/10/11 08:58:49;;;;;;;72.05;15.80;;;;;;;14.60;70.07;99696.89;1590140;88;20991;-69
2021/10/11 09:01:22;;;;;;;29.48;11.48;;;;;;;14.74;68.67;99694.95;1589392;89;21111;-69
2021/10/11 09:03:52;;;;;;;25.62;11.38;;;;;;;14.88;67.44;99694.75;1573384;88;21446;-70
2021/10/11 09:06:21;;;;;;;17.15;11.25;;;;;;;15.02;66.33;99694.09;1592759;88;21505;-70
2021/10/11 09:08:49;;;;;;;16.85;10.15;;;;;;;15.14;64.97;99686.41;1592515;88;20892;-70
2021/10/11 09:11:18;;;;;;;15.55;11.15;;;;;;;15.29;63.33;99688.36;1592568;88;21522;-69
2021/10/11 09:13:53;;;;;;;18.62;11.25;;;;;;;15.39;61.96;99681.98;1592450;88;21817;-70
2021/10/11 09:16:35;;;;;;;16.82;9.83;;;;;;;15.51;60.90;99676.03;1574401;88;21494;-70
2021/10/11 09:19:11;;;;;;;18.17;10.45;;;;;;;15.62;59.53;99676.78;1592241;88;20972;-70
2021/10/11 09:21:38;;;;;;;19.10;10.98;;;;;;;15.76;58.07;99676.07;1592821;88;21086;-70
2021/10/11 09:24:12;;;;;;;14.83;11.15;;;;;;;15.86;57.05;99674.98;1592427;88;20924;-70
2021/10/11 09:26:49;;;;;;;19.15;11.75;;;;;;;15.98;56.62;99669.88;1592478;88;21208;-69
2021/10/11 09:29:28;;;;;;;14.58;9.80;;;;;;;16.06;55.19;99670.61;1592610;88;21517;-70
2021/10/11 09:32:01;;;;;;;15.85;10.30;;;;;;;16.11;54.67;99658.11;1592359;88;20928;-70
2021/10/11 09:34:32;;;;;;;29.98;11.50;;;;;;;16.23;53.78;99653.87;1591388;88;20929;-70
2021/10/11 09:37:17;;;;;;;46.68;11.33;;;;;;;16.34;52.94;99642.53;1592085;88;20983;-70
2021/10/11 09:39:43;;;;;;;16.12;10.13;;;;;;;16.43;51.86;99645.45;1592339;88;21829;-70
2021/10/11 09:42:14;;;;;;;14.20;7.90;;;;;;;16.54;51.02;99640.75;1592086;88;21137;-70
2021/10/11 09:44:54;;;;;;;11.45;8.25;;;;;;;16.61;50.39;99634.41;1591258;88;21589;-70
2021/10/11 09:47:35;;;;;;;10.03;7.17;;;;;;;16.68;49.49;99635.18;1592562;88;21486;-70
2021/10/11 09:50:04;;;;;;;13.68;7.22;;;;;;;16.80;49.13;99632.23;1592432;88;20988;-70
2021/10/11 09:52:32;;;;;;;18.73;8.60;;;;;;;16.91;47.92;99640.84;1592604;88;21123;-71
2021/10/11 09:55:00;;;;;;;24.57;7.42;;;;;;;16.90;46.26;99632.88;1596398;88;20971;-71
2021/10/11 09:57:27;;;;;;;14.80;7.17;;;;;;;16.86;45.61;99632.08;1592465;88;20919;-70
2021/10/11 09:59:55;;;;;;;12.47;6.55;;;;;;;16.91;45.79;99627.97;1592365;88;20993;-71
2021/10/11 10:02:26;;;;;;;32.85;7.70;;;;;;;17.03;45.65;99622.80;1573292;88;20907;-71
2021/10/11 10:04:58;;;;;;;8.05;6.55;;;;;;;17.12;45.18;99615.94;1592601;88;21100;-71
2021/10/11 10:07:28;;;;;;;10.43;6.17;;;;;;;17.22;44.22;99624.12;1592383;88;21024;-72
2021/10/11 10:09:57;;;;;;;11.18;6.85;;;;;;;17.26;42.91;99617.80;1592725;88;20973;-71
2021/10/11 10:12:25;;;;;;;9.03;5.67;;;;;;;17.21;42.53;99617.91;1592517;88;21466;-72
2021/10/11 10:15:01;;;;;;;11.55;6.60;;;;;;;17.17;41.84;99610.03;1592470;88;21014;-72
2021/10/11 10:17:34;;;;;;;13.03;6.12;;;;;;;17.06;40.59;99607.64;1592329;88;20927;-72
2021/10/11 10:20:11;;;;;;;10.63;6.62;;;;;;;16.95;40.34;99597.22;1592623;88;21470;-71
2021/10/11 10:22:45;;;;;;;57.38;9.00;;;;;;;16.95;40.30;99595.88;1592811;88;20923;-72
2021/10/11 10:25:12;;;;;;;13.58;6.90;;;;;;;17.05;40.38;99588.56;1593299;88;20903;-71
2021/10/11 10:27:40;;;;;;;10.60;6.25;;;;;;;17.07;39.91;99588.06;1582420;88;20930;-71
2021/10/11 10:30:22;;;;;;;10.18;6.08;;;;;;;17.08;39.73;99587.61;1602070;88;21142;-71
2021/10/11 10:33:06;;;;;;;8.48;6.08;;;;;;;17.13;39.52;99579.91;1601955;87;21446;-72
2021/10/11 10:35:40;;;;;;;6.55;5.25;;;;;;;17.16;38.86;99578.95;1601552;87;20895;-72
2021/10/11 10:38:20;;;;;;;9.33;5.28;;;;;;;17.19;39.15;99569.55;1601355;88;20963;-72
2021/10/11 10:40:50;;;;;;;9.95;6.00;;;;;;;17.29;38.64;99563.05;1602040;88;20989;-72
2021/10/11 10:43:19;;;;;;;11.30;6.00;;;;;;;17.31;37.10;99567.88;1601510;88;21205;-72
2021/10/11 10:45:52;;;;;;;8.78;5.35;;;;;;;17.29;36.62;99567.05;1602083;88;21029;-71
2021/10/11 10:48:26;;;;;;;8.45;5.53;;;;;;;17.21;36.18;99552.59;1600949;88;20934;-72
2021/10/11 10:50:59;;;;;;;12.23;5.58;;;;;;;17.24;36.46;99544.97;1602182;88;21462;-72
2021/10/11 10:53:29;;;;;;;9.35;5.90;;;;;;;17.33;36.54;99542.05;1582519;89;21010;-72
2021/10/11 10:55:57;;;;;;;14.33;5.65;;;;;;;17.39;36.49;99531.67;1602217;88;21110;-72
2021/10/11 10:58:26;;;;;;;14.23;5.85;;;;;;;17.47;36.71;99534.55;1593480;88;20982;-72
2021/10/11 11:00:55;;;;;;;13.55;5.42;;;;;;;17.56;36.14;99529.45;1602305;88;21398;-72
2021/10/11 11:03:23;;;;;;;13.05;5.65;;;;;;;17.62;35.93;99526.59;1562659;88;21537;-72
2021/10/11 11:05:55;;;;;;;14.63;6.37;;;;;;;17.69;35.58;99519.33;1602093;88;21545;-72
2021/10/11 11:08:26;;;;;;;9.30;5.80;;;;;;;17.68;35.30;99510.91;1601980;88;21518;-72
2021/10/11 11:10:57;;;;;;;58.13;8.80;;;;;;;17.73;35.48;99506.31;1602020;88;20891;-72
2021/10/11 11:13:25;;;;;;;10.38;6.08;;;;;;;17.85;35.36;99509.48;1563217;88;21027;-72
2021/10/11 11:15:53;;;;;;;10.58;6.53;;;;;;;17.87;34.68;99516.98;1602125;88;21042;-72
2021/10/11 11:18:24;;;;;;;12.35;6.20;;;;;;;17.77;34.31;99506.63;1601837;88;21034;-72
2021/10/11 11:20:54;;;;;;;12.37;7.00;;;;;;;17.70;34.28;99500.61;1602092;88;21721;-72
2021/10/11 11:23:25;;;;;;;12.13;6.80;;;;;;;17.63;34.33;99494.55;1601929;88;20986;-71
2021/10/11 11:25:59;;;;;;;21.73;5.83;;;;;;;17.61;34.16;99492.38;1598954;87;20967;-71